Terminal Aerodrome Forecast
Issued by NWS Binghamton, NY

Home | Current Version | Previous Version | Text Only | Print | Product List | Glossary On
Versions: 1 2 3 4 5 6 7 8 9 10 11 12 13 14 15 16 17 18 19 20 21 22 23 24 25 26 27 28 29
000
FTUS41 KBGM 060531
TAFAVP
TAF
KAVP 060531Z 0606/0706 03005KT P6SM OVC030
     FM061000 02006KT P6SM -SHRA OVC045
     FM061500 03006KT P6SM -SHRA OVC025
     FM061700 02005KT 5SM -SHRA FEW009 OVC012
      TEMPO 0618/0622 3SM -SHRA OVC009
     FM070200 05006KT P6SM -SHRA OVC012=

USA.gov is the U.S. government's official web portal to all federal, state and local government web resources and services.